createdAt,value
2023-01-30T00:02:35.597Z,22.47
2023-01-30T00:07:37.157Z,19.73
2023-01-30T00:12:38.760Z,21.87
2023-01-30T00:17:40.330Z,19.57
2023-01-30T00:22:49.317Z,22.73
2023-01-30T00:28:00.441Z,23.67
2023-01-30T00:33:02.131Z,26.63
2023-01-30T00:38:03.792Z,26.70
2023-01-30T00:43:24.223Z,23.90
2023-01-30T00:48:26.237Z,26.17
2023-01-30T00:53:27.891Z,22.70
2023-01-30T00:58:29.567Z,24.07
2023-01-30T01:03:31.185Z,22.83
2023-01-30T01:08:32.760Z,22.50
2023-01-30T01:13:34.385Z,21.97
2023-01-30T01:18:37.076Z,23.60
2023-01-30T01:23:39.443Z,23.17
2023-01-30T01:28:41.066Z,24.80
2023-01-30T01:33:42.924Z,25.77
2023-01-30T01:38:44.833Z,23.27
2023-01-30T01:44:05.593Z,21.03
2023-01-30T01:49:19.907Z,19.23
2023-01-30T01:54:36.549Z,20.57
2023-01-30T01:59:45.960Z,20.73
2023-01-30T02:05:06.611Z,16.80
2023-01-30T02:10:13.757Z,19.00
2023-01-30T02:15:16.972Z,18.57
2023-01-30T02:20:44.971Z,17.97
2023-01-30T02:25:56.717Z,16.77
2023-01-30T02:31:16.653Z,14.47
2023-01-30T18:04:23.217Z,10.80
2023-01-30T18:09:25.131Z,11.77
2023-01-30T18:14:26.814Z,12.90
2023-01-30T18:19:29.176Z,12.70
2023-01-30T18:24:30.938Z,13.23
2023-01-30T18:29:32.654Z,14.27
2023-01-30T18:34:34.391Z,13.50
2023-01-30T18:39:38.291Z,13.10
2023-01-30T18:44:39.989Z,13.13
2023-01-30T18:49:41.700Z,13.20
2023-01-30T18:54:43.442Z,12.93
2023-01-30T18:59:45.092Z,11.53
2023-01-30T19:04:46.756Z,12.93
2023-01-30T19:09:48.483Z,12.87
2023-01-30T19:14:50.113Z,14.80
2023-01-30T19:19:51.710Z,11.93
2023-01-30T19:24:53.393Z,13.10
2023-01-30T19:29:55.312Z,10.93
2023-01-30T19:34:57.690Z,8.67
2023-01-30T19:39:59.469Z,12.00
2023-01-30T19:45:01.157Z,9.70
2023-01-30T19:50:02.898Z,11.40
2023-01-30T19:55:05.514Z,10.80
2023-01-30T20:00:08.013Z,11.20
2023-01-30T20:05:10.176Z,13.33
2023-01-30T20:10:11.926Z,12.27
2023-01-30T20:15:13.643Z,10.13
2023-01-30T20:20:16.968Z,10.83
2023-01-30T20:25:19.077Z,10.53
2023-01-30T20:30:21.061Z,14.90
2023-01-30T20:35:23.025Z,36.67
2023-01-30T20:40:24.938Z,14.50
2023-01-30T20:45:26.705Z,15.80
2023-01-30T20:55:59.569Z,14.87
2023-01-30T21:01:10.541Z,10.33
2023-01-30T21:06:12.376Z,12.23
2023-01-30T21:11:16.329Z,11.60
2023-01-30T21:16:23.646Z,10.67
2023-01-30T21:21:39.278Z,13.13
2023-01-30T21:26:46.276Z,12.60
2023-01-30T21:31:48.590Z,14.00
2023-01-30T21:37:08.870Z,14.03
2023-01-30T21:42:29.288Z,11.97
2023-01-30T21:47:30.985Z,13.10
2023-01-30T21:52:33.502Z,12.40
2023-01-30T21:57:35.309Z,14.20
2023-01-30T22:02:37.445Z,13.87
2023-01-30T22:07:39.217Z,11.47
2023-01-30T22:12:41.567Z,12.67
2023-01-30T22:17:43.253Z,13.30
2023-01-30T22:22:44.869Z,13.47
2023-01-30T22:27:46.562Z,13.97
2023-01-30T22:32:48.305Z,11.00
2023-01-30T22:37:49.954Z,10.83
2023-01-30T22:42:51.704Z,12.63
2023-01-30T22:47:53.403Z,12.73
2023-01-30T22:52:55.790Z,11.30
2023-01-30T22:57:57.521Z,9.80
2023-01-30T23:02:59.174Z,12.37
2023-01-30T23:08:00.852Z,11.37
2023-01-30T23:13:08.391Z,15.70
2023-01-30T23:18:29.072Z,9.53
2023-01-30T23:23:30.827Z,10.13
2023-01-30T23:28:32.745Z,9.70
2023-01-30T23:33:34.440Z,11.77
2023-01-30T23:38:36.611Z,9.80
2023-01-30T23:43:40.961Z,9.10
2023-01-30T23:48:44.517Z,9.43
2023-01-30T23:53:46.891Z,9.37
2023-01-30T23:58:50.005Z,11.27
